Time;durP1;ratioP1;P1;durP2;ratioP2;P2;SDS_P1;SDS_P2;PMS_P1;PMS_P2;Temp;Humidity;BMP_temperature;BMP_pressure;BME280_temperature;BME280_humidity;BME280_pressure;Samples;Min_cycle;Max_cycle;Signal;HPM_P1;HPM_P2
2023/01/23 00:00:04;;;;;;;;;;;2.30;99.90;;;;;;5116647;27;19923;-93
2023/01/23 00:02:30;;;;;;;;;;;2.30;99.90;;;;;;5124751;27;19931;-93
2023/01/23 00:04:55;;;;;;;;;;;2.30;99.90;;;;;;5127654;27;19923;-92
2023/01/23 00:07:21;;;;;;;;;;;2.30;99.90;;;;;;5112601;27;20255;-94
2023/01/23 00:09:47;;;;;;;;;;;2.50;99.90;;;;;;5108126;27;19932;-94
2023/01/23 00:12:12;;;;;;;;;;;3.30;99.90;;;;;;5125584;27;19924;-92
2023/01/23 00:14:38;;;;;;;;;;;2.20;99.90;;;;;;5119832;27;19927;-93
2023/01/23 00:17:03;;;;;;;;;;;2.20;99.90;;;;;;5122107;27;19932;-95
2023/01/23 00:19:29;;;;;;;;;;;3.10;99.90;;;;;;5156015;27;19986;-94
2023/01/23 00:21:57;;;;;;;;;;;2.30;99.90;;;;;;5127496;27;19995;-94
2023/01/23 00:24:22;;;;;;;;;;;2.30;99.90;;;;;;5131540;27;19923;-95
2023/01/23 00:26:48;;;;;;;;;;;2.20;99.90;;;;;;5119004;28;19920;-95
2023/01/23 00:29:16;;;;;;;;;;;2.30;99.90;;;;;;5116994;27;19920;-94
2023/01/23 00:31:41;;;;;;;;;;;2.30;99.90;;;;;;5133721;27;19951;-92
2023/01/23 00:34:09;;;;;;;;;;;2.20;99.90;;;;;;5128971;27;19935;-93
2023/01/23 00:36:36;;;;;;;;;;;2.30;99.90;;;;;;5120728;27;20329;-95
2023/01/23 00:39:03;;;;;;;;;;;2.20;99.90;;;;;;5119292;27;20030;-94
2023/01/23 00:41:28;;;;;;;;;;;2.20;99.90;;;;;;5124782;27;19923;-95
2023/01/23 00:43:54;;;;;;;;;;;2.20;99.90;;;;;;5125193;27;19962;-93
2023/01/23 00:46:20;;;;;;;;;;;2.70;99.90;;;;;;5119731;27;19962;-94
2023/01/23 00:48:46;;;;;;;;;;;2.40;99.90;;;;;;5139333;27;20378;-93
2023/01/23 00:51:11;;;;;;;;;;;2.20;99.90;;;;;;5109123;28;19930;-94
2023/01/23 00:53:37;;;;;;;;;;;2.80;99.90;;;;;;5106818;28;19931;-95
2023/01/23 00:56:05;;;;;;;;;;;2.10;99.90;;;;;;5109219;28;22839;-93
2023/01/23 00:58:31;;;;;;;;;;;2.20;99.90;;;;;;5124396;27;20278;-94
2023/01/23 01:00:56;;;;;;;;;;;2.50;99.90;;;;;;5141881;27;19927;-95
2023/01/23 01:03:24;;;;;;;;;;;2.20;99.90;;;;;;5117406;27;19923;-95
2023/01/23 01:05:49;;;;;;;;;;;2.70;99.90;;;;;;5112117;28;19923;-95
2023/01/23 01:08:15;;;;;;;;;;;3.10;99.90;;;;;;5119276;28;19955;-94
2023/01/23 01:10:41;;;;;;;;;;;2.20;99.90;;;;;;5115911;28;19934;-94
2023/01/23 01:13:07;;;;;;;;;;;2.20;99.90;;;;;;5125618;27;19924;-94
2023/01/23 01:15:33;;;;;;;;;;;2.30;99.90;;;;;;5158963;27;19934;-94
2023/01/23 01:17:59;;;;;;;;;;;2.10;99.90;;;;;;5119759;27;19923;-93
2023/01/23 01:20:25;;;;;;;;;;;3.00;99.90;;;;;;5111698;28;19931;-94
2023/01/23 01:22:55;;;;;;;;;;;3.30;99.90;;;;;;5135688;27;20014;-93
2023/01/23 01:25:21;;;;;;;;;;;2.10;99.90;;;;;;5119097;28;19959;-96
2023/01/23 01:27:47;;;;;;;;;;;2.20;99.90;;;;;;5132914;28;19934;-95
2023/01/23 01:30:13;;;;;;;;;;;2.10;99.90;;;;;;5114558;27;19934;-94
2023/01/23 01:32:39;;;;;;;;;;;2.10;99.90;;;;;;5128913;27;19923;-92
2023/01/23 01:35:05;;;;;;;;;;;2.10;99.90;;;;;;5122792;28;19930;-94
2023/01/23 01:37:32;;;;;;;;;;;2.10;99.90;;;;;;5133389;27;19927;-93
2023/01/23 01:39:57;;;;;;;;;;;2.20;99.90;;;;;;5138139;28;19927;-94
2023/01/23 01:42:27;;;;;;;;;;;2.10;99.90;;;;;;5106756;28;19944;-92
2023/01/23 01:44:52;;;;;;;;;;;2.10;99.90;;;;;;5130177;28;19930;-94
2023/01/23 01:47:18;;;;;;;;;;;2.10;99.90;;;;;;5147616;27;20311;-94
2023/01/23 01:49:43;;;;;;;;;;;2.20;99.90;;;;;;5111969;28;19946;-94
2023/01/23 01:52:11;;;;;;;;;;;2.10;99.90;;;;;;5144673;27;19985;-96
2023/01/23 01:54:39;;;;;;;;;;;2.20;99.90;;;;;;5144905;27;19924;-94
2023/01/23 01:57:14;;;;;;;;;;;2.10;99.90;;;;;;5157593;27;19919;-93
2023/01/23 01:59:43;;;;;;;;;;;2.10;99.90;;;;;;5151906;27;19919;-93
2023/01/23 02:02:11;;;;;;;;;;;2.20;99.90;;;;;;5158229;27;19975;-92
2023/01/23 02:04:39;;;;;;;;;;;2.20;99.90;;;;;;5147758;27;19955;-94
2023/01/23 02:07:10;;;;;;;;;;;2.40;99.90;;;;;;5141290;27;19942;-93
2023/01/23 02:09:36;;;;;;;;;;;2.10;99.90;;;;;;5128680;27;19930;-94
2023/01/23 02:12:03;;;;;;;;;;;2.30;99.90;;;;;;5137790;27;19971;-92
2023/01/23 02:14:28;;;;;;;;;;;2.10;99.90;;;;;;5115165;28;20010;-93
2023/01/23 02:16:58;;;;;;;;;;;2.10;99.90;;;;;;5123927;27;19923;-93
2023/01/23 02:19:44;;;;;;;;;;;2.10;99.90;;;;;;5126162;27;19924;-93
2023/01/23 02:22:20;;;;;;;;;;;2.20;99.90;;;;;;5129182;27;19927;-92
2023/01/23 02:24:57;;;;;;;;;;;2.20;99.90;;;;;;5144708;27;19923;-95
2023/01/23 02:27:23;;;;;;;;;;;2.20;99.90;;;;;;5129500;27;19924;-93
2023/01/23 02:29:50;;;;;;;;;;;2.20;99.90;;;;;;5136682;27;19931;-92
2023/01/23 02:32:18;;;;;;;;;;;2.10;99.90;;;;;;5124128;27;19931;-93
2023/01/23 02:34:44;;;;;;;;;;;2.40;99.90;;;;;;5121611;27;19928;-94
2023/01/23 02:37:10;;;;;;;;;;;2.60;99.90;;;;;;5133985;27;19938;-95
2023/01/23 02:39:36;;;;;;;;;;;2.20;99.90;;;;;;5121761;27;19930;-92
2023/01/23 02:42:02;;;;;;;;;;;2.60;99.90;;;;;;5126543;27;19934;-94
2023/01/23 02:44:32;;;;;;;;;;;2.20;99.90;;;;;;5114236;28;19928;-93
2023/01/23 02:46:59;;;;;;;;;;;2.20;99.90;;;;;;5124421;27;19957;-94
2023/01/23 02:49:25;;;;;;;;;;;2.20;99.90;;;;;;5128334;27;19971;-94
2023/01/23 02:51:52;;;;;;;;;;;2.20;99.90;;;;;;5143676;27;20391;-94
2023/01/23 02:54:18;;;;;;;;;;;2.20;99.90;;;;;;5138654;27;19928;-95
2023/01/23 02:56:44;;;;;;;;;;;2.20;99.90;;;;;;5123790;27;19973;-94
2023/01/23 03:01:54;;;;;;;;;;;2.20;99.90;;;;;;5139945;27;19923;-94
2023/01/23 03:04:20;;;;;;;;;;;3.00;99.90;;;;;;5139777;27;19923;-94
2023/01/23 03:06:45;;;;;;;;;;;2.30;99.90;;;;;;5109736;28;19952;-94
2023/01/23 03:09:12;;;;;;;;;;;3.50;99.90;;;;;;5122801;27;20006;-93
2023/01/23 03:11:38;;;;;;;;;;;2.20;99.90;;;;;;5138683;27;20018;-95
2023/01/23 03:14:05;;;;;;;;;;;2.20;99.90;;;;;;5141318;27;19923;-94
2023/01/23 03:16:31;;;;;;;;;;;2.20;99.90;;;;;;5125026;27;19930;-94
2023/01/23 03:19:00;;;;;;;;;;;3.20;99.90;;;;;;5152072;27;19923;-94
2023/01/23 03:21:26;;;;;;;;;;;3.50;99.90;;;;;;5135595;27;19924;-96
2023/01/23 03:23:52;;;;;;;;;;;2.20;99.90;;;;;;5134662;27;19923;-92
2023/01/23 03:26:17;;;;;;;;;;;2.20;99.90;;;;;;5129122;27;19919;-94
2023/01/23 03:31:27;;;;;;;;;;;2.50;99.90;;;;;;5166955;27;19950;-93
2023/01/23 03:33:53;;;;;;;;;;;2.20;99.90;;;;;;5157343;27;19923;-93
2023/01/23 03:36:18;;;;;;;;;;;2.20;99.90;;;;;;5124455;27;19924;-95
2023/01/23 03:41:23;;;;;;;;;;;3.70;99.90;;;;;;5127751;27;19980;-93
2023/01/23 03:41:29;;;;;;;;;;;2.20;99.90;;;;;;5145243;27;19973;-94
2023/01/23 03:43:56;;;;;;;;;;;2.20;99.90;;;;;;5132164;27;19924;-93
2023/01/23 03:46:22;;;;;;;;;;;2.20;99.90;;;;;;5119879;27;19923;-93
2023/01/23 03:48:50;;;;;;;;;;;2.10;99.90;;;;;;5151763;27;19923;-92
2023/01/23 03:51:16;;;;;;;;;;;2.60;99.90;;;;;;5116158;27;20025;-93
2023/01/23 03:53:41;;;;;;;;;;;2.10;99.90;;;;;;5110677;27;20015;-94
2023/01/23 03:56:07;;;;;;;;;;;2.50;99.90;;;;;;5146938;27;19928;-94
2023/01/23 03:58:32;;;;;;;;;;;2.10;99.90;;;;;;5133149;27;20033;-95
2023/01/23 04:01:01;;;;;;;;;;;2.30;99.90;;;;;;5127944;27;19924;-93
2023/01/23 04:03:27;;;;;;;;;;;2.50;99.90;;;;;;5128487;27;19986;-94
2023/01/23 04:05:57;;;;;;;;;;;2.10;99.90;;;;;;5135612;27;19923;-93
2023/01/23 04:08:22;;;;;;;;;;;2.10;99.90;;;;;;5143897;27;20378;-93
2023/01/23 04:10:48;;;;;;;;;;;3.00;99.90;;;;;;5121554;28;20352;-93
2023/01/23 04:13:13;;;;;;;;;;;2.10;99.90;;;;;;5129733;27;19924;-94
2023/01/23 04:15:39;;;;;;;;;;;2.90;99.90;;;;;;5111209;27;20312;-94
2023/01/23 04:18:04;;;;;;;;;;;2.10;99.90;;;;;;5114996;27;19930;-93
2023/01/23 04:20:30;;;;;;;;;;;2.10;99.90;;;;;;5110414;27;19923;-94
2023/01/23 04:22:56;;;;;;;;;;;2.10;99.90;;;;;;5121203;27;19924;-95
2023/01/23 04:25:21;;;;;;;;;;;2.10;99.90;;;;;;5107282;27;19923;-93
2023/01/23 04:27:47;;;;;;;;;;;2.10;99.90;;;;;;5121762;27;19933;-95
2023/01/23 04:30:12;;;;;;;;;;;2.80;99.90;;;;;;5139684;27;19928;-91
2023/01/23 04:32:39;;;;;;;;;;;2.10;99.90;;;;;;5136836;27;19946;-94
2023/01/23 04:35:04;;;;;;;;;;;2.10;99.90;;;;;;5136684;27;19924;-94
2023/01/23 04:37:30;;;;;;;;;;;2.10;99.90;;;;;;5108620;27;19988;-94
2023/01/23 04:39:56;;;;;;;;;;;2.10;99.90;;;;;;5124827;27;19924;-93
2023/01/23 04:42:21;;;;;;;;;;;2.20;99.90;;;;;;5137645;27;19990;-95
2023/01/23 04:44:47;;;;;;;;;;;3.00;99.90;;;;;;5123329;27;19927;-93
2023/01/23 04:47:12;;;;;;;;;;;2.10;99.90;;;;;;5160370;27;19930;-93
2023/01/23 04:49:38;;;;;;;;;;;2.50;99.90;;;;;;5145862;27;19923;-94
2023/01/23 04:52:03;;;;;;;;;;;2.10;99.90;;;;;;5109282;27;20053;-94
2023/01/23 04:54:29;;;;;;;;;;;2.20;99.90;;;;;;5130333;27;19923;-93
2023/01/23 04:56:55;;;;;;;;;;;2.30;99.90;;;;;;5126010;27;19926;-95
2023/01/23 04:59:21;;;;;;;;;;;2.20;99.90;;;;;;5128996;27;19919;-92
2023/01/23 05:01:47;;;;;;;;;;;2.20;99.90;;;;;;5160050;27;19931;-92
2023/01/23 05:04:12;;;;;;;;;;;2.20;99.90;;;;;;5142705;28;19929;-94
2023/01/23 05:06:38;;;;;;;;;;;2.30;99.90;;;;;;5122887;27;19944;-94
2023/01/23 05:09:04;;;;;;;;;;;2.10;99.90;;;;;;5112152;28;19924;-93
2023/01/23 05:11:29;;;;;;;;;;;2.10;99.90;;;;;;5121794;28;19924;-94
2023/01/23 05:13:55;;;;;;;;;;;2.10;99.90;;;;;;5127470;27;19965;-94
2023/01/23 05:16:21;;;;;;;;;;;2.70;99.90;;;;;;5154097;27;19923;-95
2023/01/23 05:18:46;;;;;;;;;;;2.90;99.90;;;;;;5124296;28;19932;-93
2023/01/23 05:21:12;;;;;;;;;;;2.10;99.90;;;;;;5113833;28;19923;-94
2023/01/23 05:23:37;;;;;;;;;;;3.20;99.90;;;;;;5138858;27;20020;-95
2023/01/23 05:26:03;;;;;;;;;;;2.10;99.90;;;;;;5143262;28;19923;-93
2023/01/23 05:28:28;;;;;;;;;;;2.10;99.90;;;;;;5123418;28;20356;-92
2023/01/23 05:30:54;;;;;;;;;;;3.20;99.90;;;;;;5138349;27;19943;-93
2023/01/23 05:33:20;;;;;;;;;;;3.30;99.90;;;;;;5128275;27;19924;-95
2023/01/23 05:35:45;;;;;;;;;;;2.00;99.90;;;;;;5148896;27;19931;-92
2023/01/23 05:38:11;;;;;;;;;;;2.60;99.90;;;;;;5137075;27;19928;-92
2023/01/23 05:40:37;;;;;;;;;;;2.00;99.90;;;;;;5134039;27;19966;-93
2023/01/23 05:43:03;;;;;;;;;;;2.70;99.90;;;;;;5123125;27;19930;-94
2023/01/23 05:45:28;;;;;;;;;;;2.00;99.90;;;;;;5117149;27;20413;-95
2023/01/23 05:47:55;;;;;;;;;;;3.10;99.90;;;;;;5121891;27;19930;-94
2023/01/23 05:50:22;;;;;;;;;;;2.10;99.90;;;;;;5118623;27;19944;-96
2023/01/23 05:52:48;;;;;;;;;;;2.00;99.90;;;;;;5130652;27;19927;-92
2023/01/23 05:55:13;;;;;;;;;;;2.50;99.90;;;;;;5127958;27;20365;-93
2023/01/23 05:57:39;;;;;;;;;;;2.00;99.90;;;;;;5110763;27;19963;-94
2023/01/23 06:00:06;;;;;;;;;;;2.00;99.90;;;;;;5133905;27;19923;-93
2023/01/23 06:02:32;;;;;;;;;;;2.00;99.90;;;;;;5127191;27;19954;-94
2023/01/23 06:04:58;;;;;;;;;;;2.00;99.90;;;;;;5125867;27;19927;-94
2023/01/23 06:07:23;;;;;;;;;;;2.00;99.90;;;;;;5104656;27;19931;-94
2023/01/23 06:09:49;;;;;;;;;;;2.20;99.90;;;;;;5123056;27;19945;-93
2023/01/23 06:12:14;;;;;;;;;;;2.20;99.90;;;;;;5123263;27;19923;-93
2023/01/23 06:14:40;;;;;;;;;;;2.10;99.90;;;;;;5124716;27;19946;-93
2023/01/23 06:17:06;;;;;;;;;;;2.10;99.90;;;;;;5131690;27;19927;-93
2023/01/23 06:19:31;;;;;;;;;;;2.10;99.90;;;;;;5128845;27;19930;-93
2023/01/23 06:21:57;;;;;;;;;;;2.60;99.90;;;;;;5146948;27;20221;-93
2023/01/23 06:24:22;;;;;;;;;;;2.00;99.90;;;;;;5119560;27;19930;-95
2023/01/23 06:26:48;;;;;;;;;;;2.00;99.90;;;;;;5146116;27;20290;-94
2023/01/23 06:29:14;;;;;;;;;;;2.00;99.90;;;;;;5164862;27;19919;-94
2023/01/23 06:31:40;;;;;;;;;;;2.00;99.90;;;;;;5143341;27;19920;-93
2023/01/23 06:34:05;;;;;;;;;;;2.70;99.90;;;;;;5126140;27;19926;-94
2023/01/23 06:36:31;;;;;;;;;;;2.50;99.90;;;;;;5125939;27;19953;-95
2023/01/23 06:38:56;;;;;;;;;;;1.90;99.90;;;;;;5127017;27;19923;-93
2023/01/23 06:41:23;;;;;;;;;;;2.60;99.90;;;;;;5130726;27;19931;-93
2023/01/23 06:43:48;;;;;;;;;;;2.70;99.90;;;;;;5138718;27;19923;-93
2023/01/23 06:46:14;;;;;;;;;;;2.00;99.90;;;;;;5144554;27;19923;-93
2023/01/23 06:48:40;;;;;;;;;;;2.50;99.90;;;;;;5127320;27;19945;-93
2023/01/23 06:51:06;;;;;;;;;;;1.90;99.90;;;;;;5140689;27;19924;-92
2023/01/23 06:53:31;;;;;;;;;;;3.10;99.90;;;;;;5130669;27;19949;-95
2023/01/23 06:56:01;;;;;;;;;;;2.20;99.90;;;;;;5125457;27;20006;-92
2023/01/23 06:58:27;;;;;;;;;;;1.80;99.90;;;;;;5137777;27;20250;-94
2023/01/23 07:00:53;;;;;;;;;;;2.00;99.90;;;;;;5114243;27;20002;-94
2023/01/23 07:03:19;;;;;;;;;;;1.80;99.90;;;;;;5151259;27;19923;-92
2023/01/23 07:05:45;;;;;;;;;;;2.20;99.90;;;;;;5133235;27;19924;-94
2023/01/23 07:08:10;;;;;;;;;;;2.40;99.90;;;;;;5143043;27;20433;-93
2023/01/23 07:10:36;;;;;;;;;;;2.70;99.90;;;;;;5143862;27;20357;-94
2023/01/23 07:13:03;;;;;;;;;;;1.80;99.90;;;;;;5144157;27;19924;-94
2023/01/23 07:15:29;;;;;;;;;;;2.00;99.90;;;;;;5126682;27;19923;-94
2023/01/23 07:17:54;;;;;;;;;;;1.80;99.90;;;;;;5157860;27;19923;-95
2023/01/23 07:20:20;;;;;;;;;;;2.10;99.90;;;;;;5128428;27;19923;-94
2023/01/23 07:22:45;;;;;;;;;;;2.30;99.90;;;;;;5125401;27;19923;-94
2023/01/23 07:25:11;;;;;;;;;;;2.30;99.90;;;;;;5147594;27;19946;-93
2023/01/23 07:27:37;;;;;;;;;;;2.60;99.90;;;;;;5145828;27;19969;-94
2023/01/23 07:30:02;;;;;;;;;;;1.80;99.90;;;;;;5155085;27;19924;-94
2023/01/23 07:32:28;;;;;;;;;;;1.80;99.90;;;;;;5143214;27;19968;-94
2023/01/23 07:34:53;;;;;;;;;;;2.80;99.90;;;;;;5144759;27;19927;-94
2023/01/23 07:37:19;;;;;;;;;;;1.80;99.90;;;;;;5125290;27;19995;-93
2023/01/23 07:39:45;;;;;;;;;;;2.10;99.90;;;;;;5121885;27;19974;-95
2023/01/23 07:42:10;;;;;;;;;;;1.90;99.90;;;;;;5130333;27;19971;-94
2023/01/23 07:44:36;;;;;;;;;;;0.40;99.90;;;;;;5143524;27;19931;-93
2023/01/23 07:47:02;;;;;;;;;;;1.90;99.90;;;;;;5126871;27;19949;-92
2023/01/23 07:49:27;;;;;;;;;;;1.90;99.90;;;;;;5131404;27;20374;-93
2023/01/23 07:51:53;;;;;;;;;;;2.10;99.90;;;;;;5142157;27;19944;-95
2023/01/23 07:54:19;;;;;;;;;;;2.00;99.90;;;;;;5112028;28;19956;-94
2023/01/23 07:56:50;;;;;;;;;;;1.90;99.90;;;;;;5160272;27;19927;-94
2023/01/23 07:59:15;;;;;;;;;;;1.90;99.90;;;;;;5143990;27;19919;-95
2023/01/23 08:01:42;;;;;;;;;;;1.90;99.90;;;;;;5126848;27;19919;-92
2023/01/23 08:04:08;;;;;;;;;;;2.50;99.90;;;;;;5128675;27;19938;-94
2023/01/23 08:06:34;;;;;;;;;;;2.00;99.90;;;;;;5118149;27;20302;-94
2023/01/23 08:08:59;;;;;;;;;;;2.00;99.90;;;;;;5130032;27;19938;-92
2023/01/23 08:11:28;;;;;;;;;;;1.90;99.90;;;;;;5108552;27;19924;-96
2023/01/23 08:13:53;;;;;;;;;;;2.00;99.90;;;;;;5109575;27;20374;-94
2023/01/23 08:16:19;;;;;;;;;;;-0.40;99.90;;;;;;5152663;27;19923;-94
2023/01/23 08:18:44;;;;;;;;;;;2.00;99.90;;;;;;5142868;27;19923;-95
2023/01/23 08:21:10;;;;;;;;;;;1.90;99.90;;;;;;5129798;27;19930;-93
2023/01/23 08:23:35;;;;;;;;;;;2.00;99.90;;;;;;5140956;27;20448;-92
2023/01/23 08:26:03;;;;;;;;;;;2.30;99.90;;;;;;5113167;27;20293;-94
2023/01/23 08:28:29;;;;;;;;;;;2.10;99.90;;;;;;5115541;27;19987;-94
2023/01/23 08:30:58;;;;;;;;;;;2.20;99.90;;;;;;5148865;27;20307;-94
2023/01/23 08:33:24;;;;;;;;;;;2.10;99.90;;;;;;5127458;27;20467;-96
2023/01/23 08:35:53;;;;;;;;;;;2.10;99.90;;;;;;5113214;27;19923;-94
2023/01/23 08:38:19;;;;;;;;;;;2.10;99.90;;;;;;5157980;27;19923;-94
2023/01/23 08:40:46;;;;;;;;;;;2.50;99.90;;;;;;5129585;27;19923;-94
2023/01/23 08:43:13;;;;;;;;;;;2.10;99.90;;;;;;5132892;27;19974;-94
2023/01/23 08:45:46;;;;;;;;;;;2.90;99.90;;;;;;5141881;27;19972;-94
2023/01/23 08:48:12;;;;;;;;;;;2.20;99.90;;;;;;5112962;27;19999;-93
2023/01/23 08:50:37;;;;;;;;;;;2.20;99.90;;;;;;5121607;27;19948;-93
2023/01/23 08:53:03;;;;;;;;;;;2.20;99.90;;;;;;5130606;27;20006;-94
2023/01/23 08:55:29;;;;;;;;;;;2.20;99.90;;;;;;5155512;27;19972;-95
2023/01/23 08:57:55;;;;;;;;;;;2.20;99.90;;;;;;5111469;27;19930;-94
2023/01/23 09:00:20;;;;;;;;;;;2.20;99.90;;;;;;5125728;28;19923;-94
2023/01/23 09:02:46;;;;;;;;;;;2.30;99.90;;;;;;5107360;28;19998;-93
2023/01/23 09:05:12;;;;;;;;;;;2.70;99.90;;;;;;5131970;27;19924;-94
2023/01/23 09:07:39;;;;;;;;;;;2.30;99.90;;;;;;5141362;27;19966;-95
2023/01/23 09:10:05;;;;;;;;;;;2.30;99.90;;;;;;5145357;27;19943;-92
2023/01/23 09:12:31;;;;;;;;;;;2.30;99.90;;;;;;5129025;28;19924;-95
2023/01/23 09:14:57;;;;;;;;;;;2.30;99.90;;;;;;5136551;27;19929;-94
2023/01/23 09:17:23;;;;;;;;;;;3.40;99.90;;;;;;5142537;28;19923;-94
2023/01/23 09:19:48;;;;;;;;;;;2.40;99.90;;;;;;5143180;27;19924;-93
2023/01/23 09:22:15;;;;;;;;;;;2.40;99.90;;;;;;5141879;28;19930;-94
2023/01/23 09:24:40;;;;;;;;;;;2.40;99.90;;;;;;5146938;28;19942;-93
2023/01/23 09:27:06;;;;;;;;;;;2.50;99.90;;;;;;5152974;27;19919;-95
2023/01/23 09:29:32;;;;;;;;;;;2.50;99.90;;;;;;5118188;28;19926;-93
2023/01/23 09:31:58;;;;;;;;;;;2.60;99.90;;;;;;5128227;27;19927;-94
2023/01/23 09:34:23;;;;;;;;;;;2.60;99.90;;;;;;5124338;27;20021;-94
2023/01/23 09:36:49;;;;;;;;;;;2.60;99.90;;;;;;5128592;28;20019;-94
2023/01/23 09:39:14;;;;;;;;;;;2.60;99.90;;;;;;5105434;28;19924;-92
2023/01/23 09:41:42;;;;;;;;;;;2.60;99.90;;;;;;5137768;27;19940;-93
2023/01/23 09:44:08;;;;;;;;;;;2.60;99.90;;;;;;5149792;27;19990;-92
2023/01/23 09:46:40;;;;;;;;;;;2.60;99.90;;;;;;5134206;28;19923;-93
2023/01/23 09:49:26;;;;;;;;;;;2.70;99.90;;;;;;5143028;27;19963;-94
2023/01/23 09:51:55;;;;;;;;;;;2.70;99.90;;;;;;5109320;27;19959;-95
2023/01/23 09:54:21;;;;;;;;;;;2.70;99.90;;;;;;5120213;28;19930;-93
2023/01/23 09:56:46;;;;;;;;;;;2.70;99.90;;;;;;5120437;28;20014;-95
2023/01/23 09:59:14;;;;;;;;;;;3.10;99.90;;;;;;5117137;27;19923;-94
2023/01/23 10:01:40;;;;;;;;;;;2.80;99.90;;;;;;5157403;27;20331;-92
2023/01/23 10:04:08;;;;;;;;;;;2.80;99.90;;;;;;5151183;27;19945;-94
2023/01/23 10:07:00;;;;;;;;;;;2.80;99.90;;;;;;5141314;28;20322;-94
2023/01/23 10:09:36;;;;;;;;;;;2.80;99.90;;;;;;5116212;28;19923;-94
2023/01/23 10:12:05;;;;;;;;;;;2.80;99.90;;;;;;5125079;28;19924;-94
2023/01/23 10:14:30;;;;;;;;;;;2.80;99.90;;;;;;5136769;27;19962;-95
2023/01/23 10:17:16;;;;;;;;;;;2.90;99.90;;;;;;5152992;27;19923;-94
2023/01/23 10:19:48;;;;;;;;;;;2.90;99.90;;;;;;5096133;27;20379;-94
2023/01/23 10:22:35;;;;;;;;;;;3.00;99.90;;;;;;5143374;27;19999;-94
2023/01/23 10:25:21;;;;;;;;;;;3.00;99.90;;;;;;5133713;27;19977;-95
2023/01/23 10:27:47;;;;;;;;;;;3.00;99.90;;;;;;5125496;27;20114;-94
2023/01/23 10:30:27;;;;;;;;;;;2.90;99.90;;;;;;5142833;27;20003;-95
2023/01/23 10:32:56;;;;;;;;;;;2.90;99.90;;;;;;5120523;27;19987;-94
2023/01/23 10:35:46;;;;;;;;;;;3.00;99.90;;;;;;5120172;27;19924;-94
2023/01/23 10:38:29;;;;;;;;;;;3.00;99.90;;;;;;5129945;27;19924;-94
2023/01/23 10:41:13;;;;;;;;;;;3.00;99.90;;;;;;5135793;27;19924;-94
2023/01/23 10:43:40;;;;;;;;;;;3.20;99.90;;;;;;5127304;27;19923;-94
2023/01/23 10:46:10;;;;;;;;;;;3.00;99.90;;;;;;5129100;27;19930;-94
2023/01/23 10:48:40;;;;;;;;;;;3.00;99.90;;;;;;5144345;27;19924;-92
2023/01/23 10:51:25;;;;;;;;;;;3.10;99.90;;;;;;5152437;27;19923;-94
2023/01/23 10:54:00;;;;;;;;;;;3.00;99.90;;;;;;5121590;27;19930;-94
2023/01/23 10:56:25;;;;;;;;;;;3.10;99.90;;;;;;5153281;27;19983;-94
2023/01/23 10:58:53;;;;;;;;;;;3.10;99.90;;;;;;5150302;27;19920;-92
2023/01/23 11:01:25;;;;;;;;;;;3.30;99.90;;;;;;5160241;27;19940;-96
2023/01/23 11:03:50;;;;;;;;;;;3.00;99.90;;;;;;5154431;27;20390;-94
2023/01/23 11:06:19;;;;;;;;;;;3.00;99.90;;;;;;5146443;27;20461;-95
2023/01/23 11:08:55;;;;;;;;;;;2.90;99.90;;;;;;5141703;27;19934;-95
2023/01/23 11:11:25;;;;;;;;;;;3.00;99.90;;;;;;5130526;27;19934;-94
2023/01/23 11:14:10;;;;;;;;;;;3.00;99.90;;;;;;5146679;27;19966;-91
2023/01/23 11:16:35;;;;;;;;;;;3.00;99.90;;;;;;5147642;27;19923;-94
2023/01/23 11:19:07;;;;;;;;;;;3.10;99.90;;;;;;5108284;27;19954;-94
2023/01/23 11:21:34;;;;;;;;;;;3.20;99.90;;;;;;5127546;27;19923;-93
2023/01/23 11:24:16;;;;;;;;;;;3.20;99.90;;;;;;5137598;27;19936;-94
2023/01/23 11:26:42;;;;;;;;;;;3.30;99.90;;;;;;5118019;27;19930;-95
2023/01/23 11:29:21;;;;;;;;;;;3.30;99.90;;;;;;5131202;27;19927;-93
2023/01/23 11:31:49;;;;;;;;;;;3.40;99.90;;;;;;5141785;27;19934;-94
2023/01/23 11:34:16;;;;;;;;;;;3.30;99.90;;;;;;5152966;27;19924;-94
2023/01/23 11:36:56;;;;;;;;;;;3.30;99.90;;;;;;5129308;27;19923;-94
2023/01/23 11:39:33;;;;;;;;;;;3.40;99.90;;;;;;5123814;27;20010;-93
2023/01/23 11:41:59;;;;;;;;;;;3.40;99.90;;;;;;5136986;27;19923;-95
2023/01/23 11:44:24;;;;;;;;;;;3.30;99.90;;;;;;5137843;27;19934;-92
2023/01/23 11:46:56;;;;;;;;;;;3.40;99.90;;;;;;5144996;27;19930;-94
2023/01/23 11:49:34;;;;;;;;;;;3.50;99.90;;;;;;5148916;27;19945;-93
2023/01/23 11:51:59;;;;;;;;;;;3.50;99.90;;;;;;5131639;27;19967;-95
2023/01/23 11:54:44;;;;;;;;;;;3.50;99.90;;;;;;5148910;27;19975;-94
2023/01/23 11:57:24;;;;;;;;;;;3.60;99.90;;;;;;5155312;27;19923;-95
2023/01/23 11:59:53;;;;;;;;;;;3.60;99.90;;;;;;5129927;27;20286;-95
2023/01/23 12:02:19;;;;;;;;;;;3.60;99.90;;;;;;5156855;27;19934;-93
2023/01/23 12:05:08;;;;;;;;;;;3.60;99.90;;;;;;5148704;27;19923;-92
2023/01/23 12:07:38;;;;;;;;;;;3.60;99.90;;;;;;5118942;27;19923;-95
2023/01/23 12:10:13;;;;;;;;;;;3.60;99.90;;;;;;5120142;27;19938;-94
2023/01/23 12:12:57;;;;;;;;;;;3.60;99.90;;;;;;5143842;27;19967;-94
2023/01/23 12:15:42;;;;;;;;;;;3.50;99.90;;;;;;5140972;27;20375;-94
2023/01/23 12:18:20;;;;;;;;;;;3.60;99.90;;;;;;5122901;27;19955;-95
2023/01/23 12:20:50;;;;;;;;;;;3.70;99.90;;;;;;5136778;27;19930;-93
2023/01/23 12:23:39;;;;;;;;;;;3.70;99.90;;;;;;5150893;27;19923;-94
2023/01/23 12:26:24;;;;;;;;;;;3.70;99.90;;;;;;5145256;27;19923;-93
2023/01/23 12:29:05;;;;;;;;;;;3.70;99.90;;;;;;5142188;27;19930;-93
2023/01/23 12:31:51;;;;;;;;;;;3.60;99.90;;;;;;5133025;27;19919;-93
2023/01/23 12:34:36;;;;;;;;;;;3.60;99.90;;;;;;5135153;27;19923;-94
2023/01/23 12:37:17;;;;;;;;;;;3.70;99.90;;;;;;5133877;27;19924;-94
2023/01/23 12:39:48;;;;;;;;;;;3.60;99.90;;;;;;5136779;27;20386;-94
2023/01/23 12:42:22;;;;;;;;;;;3.50;99.90;;;;;;5125510;27;19930;-94
2023/01/23 12:44:56;;;;;;;;;;;3.60;99.90;;;;;;5142999;27;19968;-94
2023/01/23 12:47:24;;;;;;;;;;;3.60;99.90;;;;;;5115659;27;19923;-94
2023/01/23 12:49:52;;;;;;;;;;;3.50;99.90;;;;;;5130957;27;19923;-93
2023/01/23 12:52:30;;;;;;;;;;;3.50;99.90;;;;;;5130231;27;19930;-94
2023/01/23 12:55:18;;;;;;;;;;;3.50;99.90;;;;;;5128526;27;19923;-94
2023/01/23 12:57:50;;;;;;;;;;;3.50;99.90;;;;;;5127094;27;20078;-94
2023/01/23 13:00:28;;;;;;;;;;;3.10;99.90;;;;;;5140875;27;19930;-93
2023/01/23 13:03:12;;;;;;;;;;;3.50;99.90;;;;;;5117709;27;20470;-94
2023/01/23 13:05:47;;;;;;;;;;;3.50;99.90;;;;;;5136538;28;19931;-93
2023/01/23 13:08:28;;;;;;;;;;;3.40;99.90;;;;;;5116473;28;20311;-93
2023/01/23 13:13:52;;;;;;;;;;;3.50;99.90;;;;;;5134820;27;19986;-93
2023/01/23 13:16:18;;;;;;;;;;;3.50;99.90;;;;;;5142839;28;19924;-93
2023/01/23 13:27:31;;;;;;;;;;;3.40;99.90;;;;;;5146239;27;20417;-94
2023/01/23 13:29:57;;;;;;;;;;;3.40;99.90;;;;;;5153778;27;20315;-93
2023/01/23 13:32:26;;;;;;;;;;;3.40;99.90;;;;;;5126741;27;19923;-92
2023/01/23 13:34:52;;;;;;;;;;;3.40;99.90;;;;;;5143883;27;19923;-95
2023/01/23 13:37:36;;;;;;;;;;;3.40;99.90;;;;;;5122654;27;19931;-95
2023/01/23 13:40:16;;;;;;;;;;;3.40;99.90;;;;;;5142303;27;19924;-92
2023/01/23 13:42:42;;;;;;;;;;;3.20;99.90;;;;;;5120101;28;19930;-94
2023/01/23 13:45:17;;;;;;;;;;;3.30;99.90;;;;;;5097430;28;19931;-94
2023/01/23 13:50:40;;;;;;;;;;;3.30;99.90;;;;;;5145136;27;19929;-93
2023/01/23 13:59:02;;;;;;;;;;;3.30;99.90;;;;;;5155716;27;19927;-94
2023/01/23 14:07:03;;;;;;;;;;;3.30;99.90;;;;;;5143539;27;19923;-94
2023/01/23 14:09:29;;;;;;;;;;;3.30;99.90;;;;;;5148128;27;19923;-95
2023/01/23 14:11:56;;;;;;;;;;;3.50;99.90;;;;;;5133317;27;19930;-95
2023/01/23 14:17:06;;;;;;;;;;;3.30;99.90;;;;;;5130960;27;19975;-94
2023/01/23 14:19:31;;;;;;;;;;;3.30;99.90;;;;;;5139474;27;19934;-93
2023/01/23 14:21:59;;;;;;;;;;;3.40;99.90;;;;;;5127935;27;20014;-93
2023/01/23 14:24:43;;;;;;;;;;;3.30;99.90;;;;;;5115900;27;19924;-95
2023/01/23 14:27:17;;;;;;;;;;;3.40;99.90;;;;;;5147960;27;19934;-93
2023/01/23 14:29:54;;;;;;;;;;;3.30;99.90;;;;;;5130488;27;19931;-94
2023/01/23 14:32:24;;;;;;;;;;;3.40;99.90;;;;;;5135556;27;19945;-92
2023/01/23 14:34:49;;;;;;;;;;;3.40;99.90;;;;;;5145711;27;19986;-94
2023/01/23 14:37:15;;;;;;;;;;;3.40;99.90;;;;;;5117408;27;20115;-95
2023/01/23 14:39:43;;;;;;;;;;;3.30;99.90;;;;;;5122563;27;19923;-93
2023/01/23 14:42:19;;;;;;;;;;;3.30;99.90;;;;;;5130149;27;19975;-92
2023/01/23 14:44:45;;;;;;;;;;;3.70;99.90;;;;;;5128393;27;19974;-95
2023/01/23 14:47:15;;;;;;;;;;;3.30;99.90;;;;;;5120789;28;19955;-96
2023/01/23 14:49:41;;;;;;;;;;;3.30;99.90;;;;;;5142943;27;20018;-92
2023/01/23 14:52:19;;;;;;;;;;;3.30;99.90;;;;;;5111885;27;19928;-94
2023/01/23 14:54:45;;;;;;;;;;;3.40;99.90;;;;;;5145833;27;19931;-93
2023/01/23 14:57:11;;;;;;;;;;;3.30;99.90;;;;;;5129801;27;19924;-93
2023/01/23 14:59:37;;;;;;;;;;;3.30;99.90;;;;;;5148261;27;19930;-94
2023/01/23 15:02:23;;;;;;;;;;;3.40;99.90;;;;;;5136822;27;19953;-94
2023/01/23 15:05:07;;;;;;;;;;;3.80;99.90;;;;;;5115923;27;19924;-95
2023/01/23 15:07:33;;;;;;;;;;;3.30;99.90;;;;;;5145458;27;19963;-93
2023/01/23 15:09:59;;;;;;;;;;;3.30;99.90;;;;;;5112088;28;19923;-93
2023/01/23 15:12:25;;;;;;;;;;;3.30;99.90;;;;;;5138586;27;20301;-94